Etusivu
METAR-TAF:

METAR-TAF

Lentoasemat :

Pearland Regional Airport

Houston / Pearland, Texas, Yhdysvallat

Leveyspiiri: 29-31-16N, Pituuspiiri: 095-14-31W, korkeus merenpinnasta: 13 m

Tämänhetkinen sää

Tämä raportti tehtiin 43 minuuttia sitten, kello 15.08 UTC
Tuuli 15 kn etelästä/kaakosta puuskistuen 20 kn:hen
Lämpötila 29°C
Kosteus 70%
Ilmanpaine 1011 hPa
Näkyvyys: 14.5 km
Muutamia pilviä 2300 ft:n korkeudessa
Hajanaisia pilviä 2900 ft:n korkeudessa

METAR: KLVJ 221508Z AUTO 15015G20KT 9SM FEW023 SCT029 29/23 A2986 RMK AO2 T02890228

Aika: 10:51 (15:51 UTC)


TAF: puuttuu

Säähavainnot ja -ennusteet yli 4000 lentoasemalta (METAR- ja TAF-raportit).

Käytössä olevat sääasemat on merkitty karttaan keltaisilla ja punaisilla pisteillä.

Aseta hiiri pisteen päälle nähdäksesi sääaseman nimen.

Klikkaa sitten nähdäksesi säähavainnot ja -ennusteet.

Kartan vaihtaminen: klikkaa mustalla rastilla varustettuja vihreitä pisteitä, niin voit zoomata sisään; viivalla varustettua vihreää pistettä, niin voit zoomata ulos tai vihreitä nuolia, niin pääset viereisille kartoille.


METAR-TAF: